createdAt,value
2023-03-13T00:00:41.800Z,100.00
2023-03-13T00:05:44.917Z,100.00
2023-03-13T00:10:47.973Z,100.00
2023-03-13T00:15:51.100Z,100.00
2023-03-13T00:21:01.899Z,100.00
2023-03-13T00:26:14.223Z,100.00
2023-03-13T00:31:29.627Z,100.00
2023-03-13T00:36:35.517Z,100.00
2023-03-13T00:41:38.783Z,100.00
2023-03-13T00:46:42.485Z,100.00
2023-03-13T00:51:45.573Z,100.00
2023-03-13T00:56:49.745Z,100.00
2023-03-13T01:01:53.579Z,100.00
2023-03-13T01:06:58.235Z,100.00
2023-03-13T01:12:01.535Z,100.00
2023-03-13T01:17:07.507Z,100.00
2023-03-13T01:22:12.884Z,100.00
2023-03-13T01:27:16.121Z,100.00
2023-03-13T01:32:19.429Z,100.00
2023-03-13T01:37:22.565Z,100.00
2023-03-13T01:42:26.060Z,100.00
2023-03-13T01:47:29.649Z,100.00
2023-03-13T01:52:49.740Z,100.00
2023-03-13T01:58:02.462Z,100.00
2023-03-13T02:03:11.504Z,100.00
2023-03-13T02:08:35.940Z,100.00
2023-03-13T02:13:39.368Z,100.00
2023-03-13T02:18:43.704Z,100.00
2023-03-13T02:24:37.186Z,100.00
2023-03-13T02:29:41.827Z,100.00
2023-03-13T02:34:50.319Z,100.00
2023-03-13T02:39:55.231Z,100.00
2023-03-13T02:44:58.701Z,100.00
2023-03-13T02:50:02.123Z,100.00
2023-03-13T02:55:15.881Z,100.00
2023-03-13T03:00:20.277Z,100.00
2023-03-13T03:05:23.798Z,100.00
2023-03-13T03:10:27.287Z,100.00
2023-03-13T03:15:30.467Z,100.00
2023-03-13T03:20:34.322Z,100.00
2023-03-13T03:25:37.444Z,100.00
2023-03-13T03:30:41.352Z,100.00
2023-03-13T03:35:44.437Z,100.00
2023-03-13T03:40:49.808Z,100.00
2023-03-13T03:45:54.098Z,100.00
2023-03-13T03:50:58.234Z,100.00
2023-03-13T03:56:02.469Z,100.00
2023-03-13T04:01:06.174Z,100.00
2023-03-13T04:06:10.333Z,100.00
2023-03-13T04:11:13.517Z,100.00
2023-03-13T04:16:22.535Z,100.00
2023-03-13T04:21:27.008Z,100.00
2023-03-13T04:26:37.026Z,100.00
2023-03-13T04:31:40.175Z,100.00
2023-03-13T04:36:57.788Z,100.00
2023-03-13T04:42:20.022Z,100.00
2023-03-13T04:47:43.321Z,100.00
2023-03-13T04:53:09.214Z,100.00
2023-03-13T04:58:30.856Z,100.00
2023-03-13T05:03:47.114Z,100.00
2023-03-13T05:09:06.580Z,100.00
2023-03-13T05:14:16.242Z,100.00
2023-03-13T05:19:42.416Z,100.00
2023-03-13T05:24:57.814Z,100.00
2023-03-13T05:30:27.621Z,100.00
2023-03-13T05:35:49.520Z,100.00
2023-03-13T05:41:15.849Z,100.00
2023-03-13T05:46:37.513Z,100.00
2023-03-13T05:52:03.548Z,100.00
2023-03-13T05:57:23.196Z,100.00
2023-03-13T06:02:40.961Z,100.00
2023-03-13T06:07:47.125Z,100.00
2023-03-13T06:12:55.952Z,100.00
2023-03-13T06:18:02.935Z,100.00
2023-03-13T06:23:06.392Z,100.00
2023-03-13T06:28:09.578Z,100.00
2023-03-13T06:33:12.717Z,88.79
2023-03-13T06:38:15.824Z,73.76
2023-03-13T06:43:20.054Z,62.32
2023-03-13T06:48:23.872Z,58.29
2023-03-13T06:53:26.933Z,72.11
2023-03-13T06:58:32.806Z,59.45
2023-03-13T07:03:36.916Z,53.14
2023-03-13T07:08:40.756Z,52.94
2023-03-13T07:13:44.454Z,54.51
2023-03-13T07:18:48.039Z,49.71
2023-03-13T07:23:51.873Z,42.45
2023-03-13T07:28:56.788Z,43.42
2023-03-13T07:34:03.003Z,42.13
2023-03-13T07:39:07.012Z,41.52
2023-03-13T07:44:10.625Z,46.34
2023-03-13T07:49:13.843Z,53.13
2023-03-13T07:54:17.904Z,54.00
2023-03-13T07:59:21.485Z,53.99
2023-03-13T08:04:24.883Z,53.67
2023-03-13T08:09:28.463Z,52.72
2023-03-13T08:14:31.608Z,51.48
2023-03-13T08:19:34.743Z,50.99
2023-03-13T08:24:38.295Z,48.90
2023-03-13T08:29:41.453Z,45.01
2023-03-13T08:34:45.620Z,45.02
2023-03-13T08:39:50.171Z,42.78
2023-03-13T08:44:54.199Z,43.00
2023-03-13T08:49:58.384Z,41.04
2023-03-13T08:55:01.627Z,41.93
2023-03-13T09:00:07.211Z,44.83
2023-03-13T09:05:10.364Z,44.98
2023-03-13T09:10:13.471Z,46.64
2023-03-13T09:15:17.120Z,45.90
2023-03-13T09:20:33.830Z,49.09
2023-03-13T09:25:39.848Z,51.19
2023-03-13T09:30:43.532Z,50.08
2023-03-13T09:35:53.484Z,49.83
2023-03-13T09:41:06.190Z,47.80
2023-03-13T09:46:34.267Z,47.38
2023-03-13T09:51:43.565Z,49.21
2023-03-13T09:57:00.721Z,48.42
2023-03-13T10:02:16.687Z,44.83
2023-03-13T10:07:21.624Z,43.96
2023-03-13T10:12:30.219Z,44.58
2023-03-13T10:17:39.421Z,46.70
2023-03-13T10:22:46.657Z,45.90
2023-03-13T10:27:51.269Z,43.88
2023-03-13T10:32:59.030Z,44.65
2023-03-13T10:38:11.393Z,44.12
2023-03-13T10:43:22.306Z,43.29
2023-03-13T10:48:30.356Z,42.02
2023-03-13T10:53:37.013Z,42.83
2023-03-13T10:58:50.283Z,39.84
2023-03-13T11:03:57.679Z,41.91
2023-03-13T11:09:18.490Z,41.09
2023-03-13T11:14:26.313Z,38.03
2023-03-13T11:19:53.534Z,41.64
2023-03-13T11:25:22.738Z,37.96
2023-03-13T11:30:46.312Z,41.22
2023-03-13T11:36:01.594Z,33.51
2023-03-13T11:41:21.557Z,39.76
2023-03-13T11:46:45.882Z,36.74
2023-03-13T11:52:02.444Z,39.04
2023-03-13T11:57:44.205Z,39.04
2023-03-13T12:02:58.226Z,39.43
2023-03-13T12:08:29.078Z,38.08
2023-03-13T12:13:56.600Z,38.51
2023-03-13T12:19:00.234Z,37.18
2023-03-13T12:24:28.065Z,37.69
2023-03-13T12:29:50.316Z,36.45
2023-03-13T12:35:08.079Z,37.79
2023-03-13T12:40:35.228Z,38.95
2023-03-13T12:46:09.909Z,37.88
2023-03-13T12:51:49.194Z,39.26
2023-03-13T12:57:17.991Z,41.03
2023-03-13T13:02:27.953Z,42.63
2023-03-13T13:07:35.266Z,46.10
2023-03-13T13:12:43.693Z,49.17
2023-03-13T13:18:07.103Z,51.28
2023-03-13T13:23:23.959Z,52.37
2023-03-13T13:28:35.235Z,52.57
2023-03-13T13:33:39.496Z,53.82
2023-03-13T13:38:43.223Z,48.32
2023-03-13T13:43:49.234Z,49.59
2023-03-13T13:49:08.179Z,51.64
2023-03-13T13:54:43.172Z,48.88
2023-03-13T13:59:51.972Z,49.27
2023-03-13T14:05:04.365Z,46.43
2023-03-13T14:10:32.680Z,45.22
2023-03-13T14:15:37.192Z,44.72
2023-03-13T14:20:53.789Z,48.10
2023-03-13T14:25:57.475Z,46.45
2023-03-13T14:31:00.651Z,46.23
2023-03-13T14:36:04.697Z,45.82
2023-03-13T14:41:24.072Z,47.34
2023-03-13T14:46:33.597Z,46.37
2023-03-13T14:51:40.691Z,45.88
2023-03-13T14:56:45.448Z,46.52
2023-03-13T15:02:19.101Z,47.79
2023-03-13T15:07:23.216Z,48.01
2023-03-13T15:12:26.358Z,48.41
2023-03-13T15:17:30.236Z,50.64
2023-03-13T15:22:39.589Z,53.48
2023-03-13T15:27:42.676Z,54.80
2023-03-13T15:32:47.257Z,56.62
2023-03-13T15:37:50.772Z,58.55
2023-03-13T15:42:55.820Z,55.95
2023-03-13T15:48:00.999Z,56.04
2023-03-13T15:53:20.163Z,57.98
2023-03-13T15:58:24.953Z,58.23
2023-03-13T16:03:29.183Z,59.25
2023-03-13T16:08:36.453Z,60.77
2023-03-13T16:13:40.922Z,59.67
2023-03-13T16:18:44.020Z,59.50
2023-03-13T16:23:47.297Z,61.36
2023-03-13T16:28:51.270Z,63.41
2023-03-13T16:33:55.605Z,65.21
2023-03-13T16:39:05.771Z,67.62
2023-03-13T16:44:09.648Z,69.63
2023-03-13T16:49:16.157Z,71.45
2023-03-13T16:54:19.802Z,74.43
2023-03-13T16:59:24.562Z,75.71
2023-03-13T17:04:28.784Z,77.69
2023-03-13T17:09:32.345Z,80.08
2023-03-13T17:14:35.849Z,81.94
2023-03-13T17:19:38.918Z,83.49
2023-03-13T17:24:42.850Z,84.63
2023-03-13T17:29:46.028Z,84.80
2023-03-13T17:34:49.641Z,86.62
2023-03-13T17:39:52.750Z,87.75
2023-03-13T17:44:56.807Z,89.07
2023-03-13T17:50:00.815Z,88.69
2023-03-13T17:55:05.297Z,85.03
2023-03-13T18:00:45.419Z,83.63
2023-03-13T18:05:49.465Z,82.67
2023-03-13T18:10:54.126Z,83.27
2023-03-13T18:15:57.989Z,82.61
2023-03-13T18:21:02.406Z,81.91
2023-03-13T18:26:18.178Z,80.79
2023-03-13T18:31:22.701Z,81.48
2023-03-13T18:36:27.849Z,81.27
2023-03-13T18:41:32.056Z,82.52
2023-03-13T18:46:35.663Z,83.62
2023-03-13T18:51:39.374Z,85.00
2023-03-13T18:56:45.546Z,85.41
2023-03-13T19:01:49.609Z,86.48
2023-03-13T19:06:53.543Z,87.23
2023-03-13T19:11:57.115Z,87.88
2023-03-13T19:17:00.189Z,88.20
2023-03-13T19:22:04.291Z,88.94
2023-03-13T19:27:08.000Z,89.87
2023-03-13T19:32:20.046Z,90.31
2023-03-13T19:37:23.725Z,90.70
2023-03-13T19:42:28.778Z,90.26
2023-03-13T19:47:31.950Z,90.64
2023-03-13T19:52:36.133Z,91.03
2023-03-13T19:57:40.144Z,91.48
2023-03-13T20:02:44.324Z,92.03
2023-03-13T20:07:49.094Z,92.94
2023-03-13T20:12:53.917Z,93.39
2023-03-13T20:17:56.955Z,93.96
2023-03-13T20:23:00.062Z,94.29
2023-03-13T20:28:03.848Z,94.32
2023-03-13T20:33:07.523Z,94.69
2023-03-13T20:38:11.176Z,95.40
2023-03-13T20:43:15.302Z,95.67
2023-03-13T20:48:19.631Z,96.12
2023-03-13T20:53:24.425Z,96.77
2023-03-13T20:58:27.919Z,96.86
2023-03-13T21:03:36.141Z,92.36
2023-03-13T21:08:39.844Z,87.67
2023-03-13T21:13:43.538Z,86.76
2023-03-13T21:18:47.606Z,86.15
2023-03-13T21:23:52.392Z,85.95
2023-03-13T21:28:55.828Z,86.96
2023-03-13T21:33:59.506Z,89.14
2023-03-13T21:39:03.100Z,87.51
2023-03-13T21:44:08.188Z,85.61
2023-03-13T21:49:12.436Z,87.68
2023-03-13T21:54:16.037Z,90.13
2023-03-13T21:59:22.100Z,92.41
2023-03-13T22:04:25.920Z,93.63
2023-03-13T22:09:29.375Z,95.28
2023-03-13T22:14:32.868Z,96.11
2023-03-13T22:19:36.861Z,97.46
2023-03-13T22:24:40.996Z,99.19
2023-03-13T22:29:44.274Z,100.00
2023-03-13T22:34:48.409Z,100.00
2023-03-13T22:39:54.135Z,100.00
2023-03-13T22:44:57.682Z,100.00
2023-03-13T22:50:00.745Z,100.00
2023-03-13T22:55:04.752Z,100.00
2023-03-13T23:00:09.393Z,100.00
2023-03-13T23:05:12.501Z,100.00
2023-03-13T23:10:16.636Z,100.00
2023-03-13T23:15:20.273Z,100.00
2023-03-13T23:20:23.755Z,100.00
2023-03-13T23:25:27.462Z,100.00
2023-03-13T23:30:30.515Z,99.81
2023-03-13T23:35:37.377Z,98.57
2023-03-13T23:40:41.280Z,97.73
2023-03-13T23:45:45.149Z,96.76
2023-03-13T23:50:48.275Z,95.46
2023-03-13T23:55:59.018Z,93.05
